createdAt,value
2022-12-28T00:01:52.681Z,86.98
2022-12-28T00:04:20.585Z,87.00
2022-12-28T00:06:50.756Z,86.78
2022-12-28T00:09:18.642Z,87.24
2022-12-28T00:11:47.965Z,86.78
2022-12-28T00:14:15.909Z,87.19
2022-12-28T00:16:44.443Z,87.45
2022-12-28T00:19:15.383Z,87.64
2022-12-28T00:21:43.723Z,87.74
2022-12-28T00:24:18.907Z,88.32
2022-12-28T00:26:48.331Z,87.87
2022-12-28T00:29:16.588Z,88.03
2022-12-28T00:31:45.931Z,88.50
2022-12-28T00:34:14.283Z,88.72
2022-12-28T00:37:10.103Z,88.12
2022-12-28T00:39:30.563Z,88.15
2022-12-28T00:41:59.817Z,88.65
2022-12-28T00:44:27.730Z,88.44
2022-12-28T00:46:55.554Z,88.03
2022-12-28T00:49:23.363Z,87.64
2022-12-28T00:51:51.247Z,87.58
2022-12-28T00:54:19.263Z,87.47
2022-12-28T00:56:47.970Z,87.23
2022-12-28T00:59:17.498Z,87.42
2022-12-28T01:01:45.426Z,86.95
2022-12-28T01:04:15.136Z,87.07
2022-12-28T01:06:42.945Z,86.55
2022-12-28T01:09:10.880Z,86.30
2022-12-28T01:11:38.682Z,86.57
2022-12-28T01:14:06.465Z,86.72
2022-12-28T01:16:37.831Z,86.89
2022-12-28T01:19:08.061Z,86.58
2022-12-28T01:21:37.217Z,86.04
2022-12-28T01:24:07.769Z,86.25
2022-12-28T01:26:35.827Z,86.42
2022-12-28T01:29:04.250Z,85.99
2022-12-28T01:31:33.551Z,86.04
2022-12-28T01:34:03.418Z,85.20
2022-12-28T01:36:33.094Z,85.55
2022-12-28T01:39:03.654Z,85.92
2022-12-28T01:41:33.498Z,85.93
2022-12-28T01:44:47.352Z,86.27
2022-12-28T01:47:19.708Z,86.04
2022-12-28T01:49:55.367Z,85.91
2022-12-28T01:52:26.513Z,86.08
2022-12-28T01:54:59.428Z,86.08
2022-12-28T01:57:31.090Z,86.31
2022-12-28T02:00:03.479Z,85.32
2022-12-28T02:02:41.308Z,85.64
2022-12-28T02:05:10.830Z,86.25
2022-12-28T02:07:47.676Z,85.92
2022-12-28T02:10:40.863Z,86.11
2022-12-28T02:13:05.813Z,85.96
2022-12-28T02:15:33.795Z,86.04
2022-12-28T02:18:01.977Z,86.42
2022-12-28T02:20:42.253Z,86.40
2022-12-28T02:23:29.129Z,86.33
2022-12-28T02:26:31.622Z,86.28
2022-12-28T02:29:17.801Z,86.59
2022-12-28T02:31:53.784Z,86.66
2022-12-28T02:34:27.954Z,86.49
2022-12-28T02:37:02.519Z,86.57
2022-12-28T02:39:39.420Z,86.24
2022-12-28T02:42:10.829Z,86.08
2022-12-28T02:44:57.833Z,86.06
2022-12-28T02:47:42.950Z,86.02
2022-12-28T02:50:14.911Z,85.56
2022-12-28T02:53:21.359Z,85.35
2022-12-28T02:56:08.511Z,85.86
2022-12-28T02:58:55.591Z,84.57
2022-12-28T03:01:43.649Z,85.44
2022-12-28T03:04:25.186Z,85.64
2022-12-28T03:07:18.895Z,85.13
2022-12-28T03:09:51.661Z,85.40
2022-12-28T03:12:26.529Z,85.82
2022-12-28T03:15:00.093Z,86.19
2022-12-28T03:17:50.813Z,86.25
2022-12-28T03:20:40.951Z,86.59
2022-12-28T03:23:30.172Z,87.53
2022-12-28T03:26:19.384Z,87.47
2022-12-28T03:29:09.502Z,87.80
2022-12-28T03:31:42.534Z,88.20
2022-12-28T03:34:14.907Z,89.64
2022-12-28T03:37:04.770Z,90.31
2022-12-28T03:39:37.471Z,89.40
2022-12-28T03:42:32.758Z,91.62
2022-12-28T03:45:07.510Z,92.41
2022-12-28T03:47:38.835Z,92.79
2022-12-28T03:50:08.700Z,93.71
2022-12-28T03:52:36.595Z,95.34
2022-12-28T03:55:06.701Z,95.99
2022-12-28T03:57:34.506Z,96.70
2022-12-28T04:00:06.229Z,97.97
2022-12-28T04:02:43.948Z,97.30
2022-12-28T04:05:13.940Z,96.80
2022-12-28T04:07:42.654Z,96.63
2022-12-28T04:10:10.832Z,96.94
2022-12-28T04:12:38.676Z,96.67
2022-12-28T04:15:22.180Z,96.57
2022-12-28T04:17:50.027Z,97.88
2022-12-28T04:20:19.772Z,97.70
2022-12-28T04:22:47.871Z,98.04
2022-12-28T04:25:15.838Z,97.09
2022-12-28T04:27:44.751Z,97.82
2022-12-28T04:30:32.324Z,97.66
2022-12-28T04:33:00.110Z,97.61
2022-12-28T04:35:30.178Z,97.90
2022-12-28T04:37:58.150Z,97.08
2022-12-28T04:40:25.907Z,97.79
2022-12-28T04:42:53.719Z,97.51
2022-12-28T04:45:22.294Z,95.38
2022-12-28T04:47:50.309Z,97.05
2022-12-28T04:50:18.227Z,97.44
2022-12-28T04:52:47.397Z,98.04
2022-12-28T04:55:32.761Z,97.43
2022-12-28T04:58:01.514Z,96.23
2022-12-28T05:00:29.417Z,96.90
2022-12-28T05:03:00.473Z,97.37
2022-12-28T05:05:28.608Z,96.44
2022-12-28T05:08:01.853Z,96.27
2022-12-28T05:10:30.263Z,96.62
2022-12-28T05:12:58.343Z,96.07
2022-12-28T05:15:26.190Z,95.85
2022-12-28T05:17:55.663Z,96.42
2022-12-28T05:20:23.423Z,96.74
2022-12-28T05:22:51.278Z,96.60
2022-12-28T05:25:20.420Z,96.89
2022-12-28T05:27:48.207Z,97.82
2022-12-28T05:30:16.004Z,98.30
2022-12-28T05:32:43.886Z,98.25
2022-12-28T05:35:11.746Z,98.30
2022-12-28T05:37:39.599Z,98.56
2022-12-28T05:40:08.680Z,99.99
2022-12-28T05:42:37.791Z,100.00
2022-12-28T05:45:06.323Z,100.00
2022-12-28T05:47:34.316Z,100.00
2022-12-28T05:50:02.153Z,100.00
2022-12-28T05:52:30.191Z,100.00
2022-12-28T05:54:58.003Z,100.00
2022-12-28T05:57:25.762Z,100.00
2022-12-28T05:59:54.962Z,100.00
2022-12-28T06:02:25.688Z,100.00
2022-12-28T06:04:53.583Z,100.00
2022-12-28T06:07:23.916Z,100.00
2022-12-28T06:09:51.851Z,100.00
2022-12-28T06:12:19.810Z,100.00
2022-12-28T06:14:47.740Z,100.00
2022-12-28T06:17:16.991Z,100.00
2022-12-28T06:19:44.753Z,100.00
2022-12-28T06:22:12.551Z,100.00
2022-12-28T06:24:40.317Z,100.00
2022-12-28T06:27:08.209Z,100.00
2022-12-28T06:29:36.089Z,100.00
2022-12-28T06:32:03.955Z,100.00
2022-12-28T06:34:33.232Z,100.00
2022-12-28T06:37:01.006Z,100.00
2022-12-28T06:39:29.131Z,100.00
2022-12-28T06:41:56.883Z,100.00
2022-12-28T06:44:24.649Z,100.00
2022-12-28T06:46:52.496Z,100.00
2022-12-28T06:49:20.409Z,100.00
2022-12-28T06:51:49.610Z,100.00
2022-12-28T06:54:17.373Z,100.00
2022-12-28T06:56:45.328Z,100.00
2022-12-28T06:59:13.203Z,100.00
2022-12-28T07:01:44.637Z,100.00
2022-12-28T07:04:13.342Z,100.00
2022-12-28T07:06:43.264Z,100.00
2022-12-28T07:09:15.315Z,100.00
2022-12-28T07:11:43.605Z,100.00
2022-12-28T07:14:11.827Z,100.00
2022-12-28T07:19:06.389Z,100.00
2022-12-28T07:21:35.874Z,100.00
2022-12-28T07:24:04.588Z,100.00
2022-12-28T07:26:36.011Z,100.00
2022-12-28T07:29:06.118Z,100.00
2022-12-28T07:31:40.004Z,100.00
2022-12-28T07:34:12.717Z,100.00
2022-12-28T07:36:40.545Z,100.00
2022-12-28T07:39:09.069Z,100.00
2022-12-28T07:41:38.370Z,100.00
2022-12-28T07:44:07.594Z,100.00
2022-12-28T07:46:37.279Z,100.00
2022-12-28T07:49:05.408Z,100.00
2022-12-28T07:51:36.195Z,100.00
2022-12-28T07:54:05.390Z,100.00
2022-12-28T07:59:05.339Z,100.00
2022-12-28T08:01:35.804Z,100.00
2022-12-28T08:04:07.055Z,100.00
2022-12-28T08:06:37.333Z,100.00
2022-12-28T08:09:06.536Z,100.00
2022-12-28T08:11:36.859Z,100.00
2022-12-28T08:14:07.167Z,100.00
2022-12-28T08:16:37.934Z,100.00
2022-12-28T08:19:06.188Z,100.00
2022-12-28T08:21:36.597Z,100.00
2022-12-28T08:24:06.110Z,100.00
2022-12-28T08:26:36.778Z,100.00
2022-12-28T08:29:08.153Z,100.00
2022-12-28T08:31:38.053Z,100.00
2022-12-28T08:34:07.915Z,100.00
2022-12-28T08:36:36.398Z,100.00
2022-12-28T08:39:04.351Z,100.00
2022-12-28T08:41:32.541Z,100.00
2022-12-28T08:44:00.812Z,100.00
2022-12-28T08:46:31.639Z,100.00
2022-12-28T08:49:01.092Z,100.00
2022-12-28T08:51:32.376Z,100.00
2022-12-28T08:54:00.385Z,100.00
2022-12-28T08:56:30.401Z,100.00
2022-12-28T08:58:59.397Z,100.00
2022-12-28T09:01:29.604Z,100.00
2022-12-28T09:04:00.758Z,100.00
2022-12-28T09:06:31.847Z,100.00
2022-12-28T09:09:08.291Z,100.00
2022-12-28T09:11:37.080Z,100.00
2022-12-28T09:14:06.431Z,100.00
2022-12-28T09:16:34.338Z,100.00
2022-12-28T09:19:06.838Z,100.00
2022-12-28T09:21:38.866Z,100.00
2022-12-28T09:24:08.142Z,100.00
2022-12-28T09:26:37.973Z,100.00
2022-12-28T09:29:08.765Z,100.00
2022-12-28T09:31:37.561Z,100.00
2022-12-28T09:36:55.810Z,100.00
2022-12-28T09:39:24.971Z,100.00
2022-12-28T09:41:56.857Z,100.00
2022-12-28T09:45:01.229Z,100.00
2022-12-28T09:47:43.232Z,100.00
2022-12-28T09:50:47.831Z,100.00
2022-12-28T09:53:30.540Z,100.00
2022-12-28T09:56:04.639Z,100.00
2022-12-28T09:58:35.096Z,100.00
2022-12-28T10:01:05.305Z,100.00
2022-12-28T10:03:38.128Z,100.00
2022-12-28T10:06:13.604Z,100.00
2022-12-28T10:08:45.902Z,100.00
2022-12-28T10:11:18.805Z,100.00
2022-12-28T10:13:55.541Z,100.00
2022-12-28T10:16:26.600Z,100.00
2022-12-28T10:18:55.155Z,100.00
2022-12-28T10:21:32.383Z,100.00
2022-12-28T10:24:30.445Z,100.00
2022-12-28T10:26:50.032Z,100.00
2022-12-28T10:29:21.042Z,100.00
2022-12-28T10:31:59.613Z,100.00
2022-12-28T10:34:33.369Z,100.00
2022-12-28T10:37:14.750Z,100.00
2022-12-28T10:39:51.697Z,100.00
2022-12-28T10:42:27.268Z,100.00
2022-12-28T10:45:03.053Z,100.00
2022-12-28T10:47:36.036Z,100.00
2022-12-28T10:50:35.927Z,100.00
2022-12-28T10:53:00.845Z,100.00
2022-12-28T10:55:33.196Z,100.00
2022-12-28T10:58:29.195Z,100.00
2022-12-28T11:01:03.864Z,100.00
2022-12-28T11:03:35.292Z,100.00
2022-12-28T11:06:16.133Z,100.00
2022-12-28T11:09:01.698Z,100.00
2022-12-28T11:11:30.176Z,100.00
2022-12-28T11:14:03.533Z,100.00
2022-12-28T11:16:42.493Z,100.00
2022-12-28T11:19:12.762Z,100.00
2022-12-28T11:21:42.101Z,100.00
2022-12-28T11:24:19.656Z,100.00
2022-12-28T11:26:51.018Z,100.00
2022-12-28T11:29:21.041Z,100.00
2022-12-28T11:32:01.472Z,100.00
2022-12-28T11:34:40.212Z,100.00
2022-12-28T11:37:14.495Z,100.00
2022-12-28T11:39:50.548Z,100.00
2022-12-28T11:42:52.291Z,100.00
2022-12-28T11:45:55.042Z,100.00
2022-12-28T11:49:00.824Z,100.00
2022-12-28T11:51:31.013Z,100.00
2022-12-28T11:54:01.366Z,100.00
2022-12-28T11:57:00.461Z,100.00
2022-12-28T11:59:30.241Z,100.00
2022-12-28T12:02:01.090Z,100.00
2022-12-28T12:04:51.964Z,100.00
2022-12-28T12:07:31.075Z,100.00
2022-12-28T12:10:41.871Z,100.00
2022-12-28T12:13:51.119Z,100.00
2022-12-28T12:16:28.137Z,100.00
2022-12-28T12:18:59.198Z,100.00
2022-12-28T12:21:33.667Z,100.00
2022-12-28T12:24:18.392Z,100.00
2022-12-28T12:26:51.919Z,100.00
2022-12-28T12:29:24.939Z,100.00
2022-12-28T12:32:03.427Z,100.00
2022-12-28T12:34:43.076Z,100.00
2022-12-28T12:37:38.640Z,100.00
2022-12-28T12:40:33.571Z,100.00
2022-12-28T12:43:29.215Z,100.00
2022-12-28T12:46:14.979Z,100.00
2022-12-28T12:49:04.354Z,100.00
2022-12-28T12:51:38.433Z,100.00
2022-12-28T12:54:21.455Z,100.00
2022-12-28T12:56:55.241Z,100.00
2022-12-28T12:59:41.126Z,100.00
2022-12-28T13:02:35.249Z,100.00
2022-12-28T13:05:06.758Z,100.00
2022-12-28T13:07:35.546Z,100.00
2022-12-28T13:10:06.431Z,100.00
2022-12-28T13:12:34.585Z,100.00
2022-12-28T13:15:12.308Z,100.00
2022-12-28T13:17:41.057Z,100.00
2022-12-28T13:20:12.235Z,100.00
2022-12-28T13:22:43.750Z,100.00
2022-12-28T13:25:25.093Z,100.00
2022-12-28T13:27:53.514Z,100.00
2022-12-28T13:30:23.644Z,100.00
2022-12-28T13:32:53.737Z,100.00
2022-12-28T13:35:25.120Z,100.00
2022-12-28T13:38:04.538Z,100.00
2022-12-28T13:40:33.976Z,100.00
2022-12-28T13:43:23.002Z,100.00
2022-12-28T13:45:54.938Z,100.00
2022-12-28T13:48:24.633Z,100.00
2022-12-28T13:50:54.836Z,100.00
2022-12-28T13:53:27.170Z,100.00
2022-12-28T13:55:58.725Z,100.00
2022-12-28T13:58:31.657Z,100.00
2022-12-28T14:01:02.622Z,100.00
2022-12-28T14:03:37.517Z,100.00
2022-12-28T14:06:11.186Z,100.00
2022-12-28T14:08:40.659Z,100.00
2022-12-28T14:11:09.072Z,100.00
2022-12-28T14:13:38.026Z,100.00
2022-12-28T14:16:07.634Z,100.00
2022-12-28T14:18:36.272Z,100.00
2022-12-28T14:21:06.481Z,100.00
2022-12-28T14:23:37.953Z,100.00
2022-12-28T14:26:08.331Z,100.00
2022-12-28T14:28:41.066Z,100.00
2022-12-28T14:31:12.757Z,100.00
2022-12-28T14:33:52.070Z,100.00
2022-12-28T14:36:22.862Z,100.00
2022-12-28T14:38:56.312Z,100.00
2022-12-28T14:41:31.777Z,100.00
2022-12-28T14:44:03.424Z,100.00
2022-12-28T14:46:34.391Z,100.00
2022-12-28T14:49:31.078Z,100.00
2022-12-28T14:52:32.515Z,100.00
2022-12-28T14:55:20.543Z,100.00
2022-12-28T14:57:50.260Z,100.00
2022-12-28T15:00:28.140Z,100.00
2022-12-28T15:02:57.670Z,100.00
2022-12-28T15:05:41.770Z,100.00
2022-12-28T15:08:11.028Z,100.00
2022-12-28T15:10:44.934Z,100.00
2022-12-28T15:13:12.878Z,100.00
2022-12-28T15:15:41.491Z,100.00
2022-12-28T15:18:09.738Z,100.00
2022-12-28T15:20:38.961Z,100.00
2022-12-28T15:23:07.062Z,100.00
2022-12-28T15:25:36.084Z,100.00
2022-12-28T15:28:06.020Z,100.00
2022-12-28T15:30:34.108Z,100.00
2022-12-28T15:33:02.118Z,100.00
2022-12-28T15:35:30.280Z,100.00
2022-12-28T15:37:58.309Z,100.00
2022-12-28T15:40:26.660Z,100.00
2022-12-28T15:42:55.012Z,100.00
2022-12-28T15:45:25.671Z,100.00
2022-12-28T15:47:55.663Z,100.00
2022-12-28T15:50:24.264Z,100.00
2022-12-28T15:52:52.994Z,100.00
2022-12-28T15:55:21.438Z,100.00
2022-12-28T15:57:49.987Z,100.00
2022-12-28T16:00:20.603Z,100.00
2022-12-28T16:02:50.520Z,100.00
2022-12-28T16:05:19.602Z,100.00
2022-12-28T16:07:48.001Z,100.00
2022-12-28T16:10:20.689Z,100.00
2022-12-28T16:12:49.059Z,100.00
2022-12-28T16:15:17.700Z,99.92
2022-12-28T16:17:55.055Z,99.93
2022-12-28T16:20:26.480Z,99.84
2022-12-28T16:22:54.947Z,98.96
2022-12-28T16:25:22.928Z,98.34
2022-12-28T16:27:50.908Z,97.57
2022-12-28T16:30:19.033Z,96.84
2022-12-28T16:32:48.001Z,96.94
2022-12-28T16:35:16.157Z,95.81
2022-12-28T16:37:45.408Z,95.42
2022-12-28T16:40:13.842Z,94.65
2022-12-28T16:42:45.750Z,94.05
2022-12-28T16:45:14.000Z,95.01
2022-12-28T16:47:44.935Z,93.45
2022-12-28T16:50:13.844Z,93.01
2022-12-28T16:52:42.037Z,93.05
2022-12-28T16:55:11.626Z,92.14
2022-12-28T16:57:39.585Z,92.11
2022-12-28T17:00:09.126Z,91.75
2022-12-28T17:02:37.380Z,92.74
2022-12-28T17:05:05.888Z,92.95
2022-12-28T17:07:33.735Z,92.94
2022-12-28T17:10:01.873Z,93.01
2022-12-28T17:12:31.468Z,92.67
2022-12-28T17:15:04.852Z,92.36
2022-12-28T17:17:33.497Z,93.32
2022-12-28T17:20:01.896Z,92.58
2022-12-28T17:22:30.993Z,93.08
2022-12-28T17:24:59.056Z,93.15
2022-12-28T17:27:27.303Z,93.10
2022-12-28T17:29:56.765Z,92.85
2022-12-28T17:32:24.776Z,92.25
2022-12-28T17:34:53.225Z,92.97
2022-12-28T17:37:21.590Z,92.60
2022-12-28T17:39:49.687Z,92.08
2022-12-28T17:42:17.731Z,90.95
2022-12-28T17:44:48.388Z,91.06
2022-12-28T17:47:17.711Z,91.12
2022-12-28T17:49:45.680Z,90.43
2022-12-28T17:52:20.046Z,90.03
2022-12-28T17:54:47.989Z,89.86
2022-12-28T17:57:16.269Z,88.93
2022-12-28T17:59:44.317Z,89.52
2022-12-28T18:02:13.091Z,88.30
2022-12-28T18:04:42.732Z,86.78
2022-12-28T18:07:10.777Z,87.38
2022-12-28T18:09:38.790Z,86.38
2022-12-28T18:12:06.823Z,86.45
2022-12-28T18:14:34.830Z,86.05
2022-12-28T18:17:03.941Z,85.09
2022-12-28T18:19:32.096Z,85.18
2022-12-28T18:22:01.420Z,84.76
2022-12-28T18:24:29.383Z,84.99
2022-12-28T18:26:57.327Z,83.16
2022-12-28T18:29:26.383Z,83.31
2022-12-28T18:31:54.701Z,83.80
2022-12-28T18:34:23.054Z,84.21
2022-12-28T18:36:51.027Z,84.48
2022-12-28T18:39:20.965Z,84.85
2022-12-28T18:41:51.034Z,84.95
2022-12-28T18:44:22.192Z,85.50
2022-12-28T18:46:50.483Z,86.40
2022-12-28T18:49:18.778Z,86.82
2022-12-28T18:51:46.953Z,86.20
2022-12-28T18:54:14.923Z,86.49
2022-12-28T18:56:44.567Z,87.58
2022-12-28T18:59:14.173Z,86.48
2022-12-28T19:04:32.467Z,86.89
2022-12-28T19:07:03.109Z,86.28
2022-12-28T19:09:31.257Z,86.04
2022-12-28T19:12:01.182Z,86.28
2022-12-28T19:14:29.608Z,85.52
2022-12-28T19:16:58.029Z,85.48
2022-12-28T19:19:26.643Z,85.62
2022-12-28T19:21:59.127Z,85.46
2022-12-28T19:24:27.898Z,87.07
2022-12-28T19:26:56.516Z,88.04
2022-12-28T19:29:26.399Z,87.85
2022-12-28T19:31:55.245Z,89.33
2022-12-28T19:34:23.526Z,90.53
2022-12-28T19:36:52.080Z,89.89
2022-12-28T19:39:20.550Z,90.58
2022-12-28T19:41:48.684Z,89.82
2022-12-28T19:44:23.036Z,89.87
2022-12-28T19:46:54.336Z,89.44
2022-12-28T19:49:22.524Z,88.61
2022-12-28T19:51:50.649Z,89.80
2022-12-28T19:54:18.652Z,89.48
2022-12-28T19:56:47.004Z,89.19
2022-12-28T19:59:15.427Z,87.16
2022-12-28T20:01:43.739Z,86.92
2022-12-28T20:04:14.688Z,88.50
2022-12-28T20:06:44.517Z,87.63
2022-12-28T20:09:14.053Z,87.11
2022-12-28T20:11:43.045Z,87.44
2022-12-28T20:14:13.036Z,89.13
2022-12-28T20:16:42.771Z,88.48
2022-12-28T20:19:13.703Z,87.77
2022-12-28T20:21:42.621Z,88.53
2022-12-28T20:24:13.094Z,88.05
2022-12-28T20:26:41.590Z,87.79
2022-12-28T20:29:09.910Z,89.89
2022-12-28T20:31:38.799Z,90.52
2022-12-28T20:34:07.591Z,92.23
2022-12-28T20:36:37.818Z,92.21
2022-12-28T20:39:06.327Z,92.19
2022-12-28T20:41:52.702Z,93.40
2022-12-28T20:44:26.631Z,92.55
2022-12-28T20:46:55.726Z,93.75
2022-12-28T20:49:25.436Z,94.21
2022-12-28T20:51:56.004Z,94.18
2022-12-28T20:54:25.572Z,94.49
2022-12-28T20:56:55.839Z,96.39
2022-12-28T20:59:26.354Z,97.64
2022-12-28T21:01:55.448Z,98.06
2022-12-28T21:04:25.848Z,99.56
2022-12-28T21:06:56.110Z,99.27
2022-12-28T21:09:24.346Z,100.00
2022-12-28T21:11:52.646Z,100.00
2022-12-28T21:14:20.822Z,100.00
2022-12-28T21:16:49.485Z,100.00
2022-12-28T21:19:17.909Z,100.00
2022-12-28T21:21:48.405Z,100.00
2022-12-28T21:24:18.432Z,100.00
2022-12-28T21:26:46.788Z,100.00
2022-12-28T21:29:17.863Z,100.00
2022-12-28T21:31:51.885Z,100.00
2022-12-28T21:34:19.944Z,100.00
2022-12-28T21:36:48.030Z,100.00
2022-12-28T21:39:17.433Z,100.00
2022-12-28T21:41:51.785Z,100.00
2022-12-28T21:44:22.264Z,100.00
2022-12-28T21:46:52.030Z,100.00
2022-12-28T21:49:20.797Z,100.00
2022-12-28T21:51:48.791Z,100.00
2022-12-28T21:54:19.461Z,100.00
2022-12-28T21:56:51.257Z,100.00
2022-12-28T21:59:19.419Z,100.00
2022-12-28T22:02:04.930Z,100.00
2022-12-28T22:04:50.449Z,100.00
2022-12-28T22:07:21.159Z,100.00
2022-12-28T22:10:08.091Z,100.00
2022-12-28T22:12:37.312Z,100.00
2022-12-28T22:15:26.896Z,100.00
2022-12-28T22:17:56.408Z,100.00
2022-12-28T22:20:25.404Z,100.00
2022-12-28T22:22:56.133Z,100.00
2022-12-28T22:25:26.777Z,100.00
2022-12-28T22:27:55.251Z,100.00
2022-12-28T22:30:23.809Z,100.00
2022-12-28T22:32:53.131Z,100.00
2022-12-28T22:35:22.149Z,100.00
2022-12-28T22:37:51.083Z,100.00
2022-12-28T22:40:19.699Z,100.00
2022-12-28T22:42:51.290Z,100.00
2022-12-28T22:45:21.073Z,100.00
2022-12-28T22:47:50.250Z,100.00
2022-12-28T22:50:19.951Z,100.00
2022-12-28T22:52:48.301Z,100.00
2022-12-28T22:55:16.642Z,100.00
2022-12-28T22:57:45.271Z,100.00
2022-12-28T23:00:16.175Z,100.00
2022-12-28T23:02:45.128Z,100.00
2022-12-28T23:05:13.505Z,100.00
2022-12-28T23:07:41.724Z,100.00
2022-12-28T23:10:11.206Z,100.00
2022-12-28T23:12:39.226Z,100.00
2022-12-28T23:15:16.531Z,100.00
2022-12-28T23:17:46.577Z,100.00
2022-12-28T23:20:32.200Z,100.00
2022-12-28T23:23:17.633Z,100.00
2022-12-28T23:26:03.134Z,100.00
2022-12-28T23:28:31.087Z,100.00
2022-12-28T23:30:59.077Z,100.00
2022-12-28T23:33:28.697Z,100.00
2022-12-28T23:35:56.635Z,100.00
2022-12-28T23:38:24.504Z,100.00
2022-12-28T23:41:12.553Z,100.00
2022-12-28T23:43:40.471Z,100.00
2022-12-28T23:46:08.403Z,100.00
2022-12-28T23:48:37.877Z,100.00
2022-12-28T23:51:08.101Z,100.00
2022-12-28T23:53:36.377Z,100.00
2022-12-28T23:56:04.198Z,100.00
2022-12-28T23:58:32.126Z,100.00
